Terminal Aerodrome Forecast
Issued by NWS San Angelo, TX

Current Version | Previous Version | Text Only | Print | Product List | Glossary Off
Versions: 1 2 3 4 5 6 7 8 9 10 11 12 13 14

789
FTUS44 KSJT 061720
TAFSJT
TAF
KSJT 061720Z 0618/0718 15010G15KT P6SM FEW200
     FM061900 15013G21KT P6SM FEW200
     FM070100 15009KT P6SM SCT250
     FM071500 17014G21KT P6SM SCT150=

USA.gov is the U.S. government's official web portal to all federal, state and local government web resources and services.